sensor_id;sensor_type;location;lat;lon;timestamp;pressure;altitude;pressure_sealevel;temperature;humidity
72857;BME280;62742;52.136;4.500;2023-04-28T00:02:19;101440.31;;;9.76;60.91
72857;BME280;62742;52.136;4.500;2023-04-28T00:04:45;101439.50;;;9.57;61.06
72857;BME280;62742;52.136;4.500;2023-04-28T00:07:11;101436.00;;;9.50;63.58
72857;BME280;62742;52.136;4.500;2023-04-28T00:09:38;101429.00;;;9.43;62.48
72857;BME280;62742;52.136;4.500;2023-04-28T00:12:04;101435.16;;;9.23;63.80
72857;BME280;62742;52.136;4.500;2023-04-28T00:14:30;101422.91;;;9.10;64.79
72857;BME280;62742;52.136;4.500;2023-04-28T00:16:56;101425.50;;;9.44;61.52
72857;BME280;62742;52.136;4.500;2023-04-28T00:19:24;101424.66;;;9.15;64.03
72857;BME280;62742;52.136;4.500;2023-04-28T00:21:50;101421.16;;;9.16;64.18
72857;BME280;62742;52.136;4.500;2023-04-28T00:24:16;101420.31;;;9.19;62.16
72857;BME280;62742;52.136;4.500;2023-04-28T00:26:42;101415.03;;;9.44;62.27
72857;BME280;62742;52.136;4.500;2023-04-28T00:29:08;101409.78;;;9.30;63.51
72857;BME280;62742;52.136;4.500;2023-04-28T00:31:35;101398.44;;;9.17;64.69
72857;BME280;62742;52.136;4.500;2023-04-28T00:34:01;101394.94;;;9.38;61.75
72857;BME280;62742;52.136;4.500;2023-04-28T00:36:27;101387.97;;;9.12;64.35
72857;BME280;62742;52.136;4.500;2023-04-28T00:38:57;101384.47;;;9.09;64.67
72857;BME280;62742;52.136;4.500;2023-04-28T00:41:23;101378.34;;;8.96;65.52
72857;BME280;62742;52.136;4.500;2023-04-28T00:43:50;101382.72;;;9.12;63.59
72857;BME280;62742;52.136;4.500;2023-04-28T00:46:49;101373.09;;;8.94;64.91
72857;BME280;62742;52.136;4.500;2023-04-28T00:49:08;101374.00;;;9.06;63.79
72857;BME280;62742;52.136;4.500;2023-04-28T00:51:35;101371.38;;;9.09;64.77
72857;BME280;62742;52.136;4.500;2023-04-28T00:54:01;101362.63;;;8.93;65.20
72857;BME280;62742;52.136;4.500;2023-04-28T00:56:28;101361.75;;;8.86;66.22
72857;BME280;62742;52.136;4.500;2023-04-28T00:58:56;101351.28;;;8.83;66.68
72857;BME280;62742;52.136;4.500;2023-04-28T01:01:23;101351.28;;;8.92;66.33
72857;BME280;62742;52.136;4.500;2023-04-28T01:03:49;101350.38;;;8.98;66.79
72857;BME280;62742;52.136;4.500;2023-04-28T01:06:15;101353.03;;;8.89;66.66
72857;BME280;62742;52.136;4.500;2023-04-28T01:08:45;101348.66;;;8.97;64.62
72857;BME280;62742;52.136;4.500;2023-04-28T01:11:13;101351.28;;;8.95;65.60
72857;BME280;62742;52.136;4.500;2023-04-28T01:13:39;101346.91;;;8.90;65.76
72857;BME280;62742;52.136;4.500;2023-04-28T01:16:06;101336.44;;;9.01;64.93
72857;BME280;62742;52.136;4.500;2023-04-28T01:18:32;101338.16;;;9.06;63.51
72857;BME280;62742;52.136;4.500;2023-04-28T01:20:59;101339.91;;;9.01;64.94
72857;BME280;62742;52.136;4.500;2023-04-28T01:23:25;101340.81;;;8.98;66.62
72857;BME280;62742;52.136;4.500;2023-04-28T01:25:52;101339.03;;;8.93;66.77
72857;BME280;62742;52.136;4.500;2023-04-28T01:28:18;101326.81;;;9.03;63.64
72857;BME280;62742;52.136;4.500;2023-04-28T01:30:44;101319.81;;;9.03;65.08
72857;BME280;62742;52.136;4.500;2023-04-28T01:33:10;101318.06;;;8.93;65.82
72857;BME280;62742;52.136;4.500;2023-04-28T01:35:36;101323.31;;;8.93;66.18
72857;BME280;62742;52.136;4.500;2023-04-28T01:38:03;101314.59;;;8.95;65.38
72857;BME280;62742;52.136;4.500;2023-04-28T01:40:29;101307.59;;;8.90;65.33
72857;BME280;62742;52.136;4.500;2023-04-28T01:42:55;101308.47;;;8.83;66.59
72857;BME280;62742;52.136;4.500;2023-04-28T01:45:21;101307.56;;;9.08;65.01
72857;BME280;62742;52.136;4.500;2023-04-28T01:47:47;101307.53;;;9.27;64.05
72857;BME280;62742;52.136;4.500;2023-04-28T01:50:14;101302.28;;;9.22;64.29
72857;BME280;62742;52.136;4.500;2023-04-28T01:52:40;101299.69;;;9.10;64.77
72857;BME280;62742;52.136;4.500;2023-04-28T01:55:06;101290.88;;;9.46;61.94
72857;BME280;62742;52.136;4.500;2023-04-28T01:57:33;101289.09;;;9.45;59.79
72857;BME280;62742;52.136;4.500;2023-04-28T02:00:01;101297.03;;;9.25;60.05
72857;BME280;62742;52.136;4.500;2023-04-28T02:02:28;101291.78;;;9.24;61.99
72857;BME280;62742;52.136;4.500;2023-04-28T02:04:54;101279.53;;;9.38;60.92
72857;BME280;62742;52.136;4.500;2023-04-28T02:07:22;101266.47;;;9.13;63.01
72857;BME280;62742;52.136;4.500;2023-04-28T02:09:49;101257.75;;;9.17;60.37
72857;BME280;62742;52.136;4.500;2023-04-28T02:12:15;101262.88;;;9.42;61.50
72857;BME280;62742;52.136;4.500;2023-04-28T02:14:42;101255.94;;;9.29;62.12
72857;BME280;62742;52.136;4.500;2023-04-28T02:17:08;101253.38;;;9.20;62.89
72857;BME280;62742;52.136;4.500;2023-04-28T02:19:34;101259.41;;;9.37;62.75
72857;BME280;62742;52.136;4.500;2023-04-28T02:22:00;101255.13;;;9.16;61.67
72857;BME280;62742;52.136;4.500;2023-04-28T02:24:26;101255.13;;;9.08;63.34
72857;BME280;62742;52.136;4.500;2023-04-28T02:26:53;101248.97;;;9.31;61.17
72857;BME280;62742;52.136;4.500;2023-04-28T02:29:19;101247.22;;;9.25;61.73
72857;BME280;62742;52.136;4.500;2023-04-28T02:31:45;101246.34;;;9.22;60.16
72857;BME280;62742;52.136;4.500;2023-04-28T02:34:11;101241.97;;;9.27;60.40
72857;BME280;62742;52.136;4.500;2023-04-28T02:36:39;101237.59;;;9.27;61.33
72857;BME280;62742;52.136;4.500;2023-04-28T02:39:05;101237.63;;;9.21;60.63
72857;BME280;62742;52.136;4.500;2023-04-28T02:41:31;101235.81;;;9.32;59.14
72857;BME280;62742;52.136;4.500;2023-04-28T02:43:59;101242.81;;;9.29;61.93
72857;BME280;62742;52.136;4.500;2023-04-28T02:46:25;101240.19;;;9.35;61.93
72857;BME280;62742;52.136;4.500;2023-04-28T02:48:51;101237.56;;;9.35;61.27
72857;BME280;62742;52.136;4.500;2023-04-28T02:51:18;101234.16;;;9.19;62.00
72857;BME280;62742;52.136;4.500;2023-04-28T02:53:44;101228.00;;;9.17;61.17
72857;BME280;62742;52.136;4.500;2023-04-28T02:56:11;101217.50;;;9.28;61.95
72857;BME280;62742;52.136;4.500;2023-04-28T02:58:37;101219.34;;;9.04;61.78
72857;BME280;62742;52.136;4.500;2023-04-28T03:01:03;101215.75;;;9.22;61.31
72857;BME280;62742;52.136;4.500;2023-04-28T03:03:29;101211.41;;;9.18;62.24
72857;BME280;62742;52.136;4.500;2023-04-28T03:05:55;101214.94;;;9.09;63.33
72857;BME280;62742;52.136;4.500;2023-04-28T03:08:22;101203.56;;;9.13;63.77
72857;BME280;62742;52.136;4.500;2023-04-28T03:10:48;101198.28;;;9.23;64.20
72857;BME280;62742;52.136;4.500;2023-04-28T03:13:14;101198.38;;;9.01;65.46
72857;BME280;62742;52.136;4.500;2023-04-28T03:15:40;101186.13;;;9.06;65.65
72857;BME280;62742;52.136;4.500;2023-04-28T03:18:06;101179.16;;;8.96;66.17
72857;BME280;62742;52.136;4.500;2023-04-28T03:20:33;101191.41;;;8.95;65.13
72857;BME280;62742;52.136;4.500;2023-04-28T03:22:59;101173.88;;;9.11;63.95
72857;BME280;62742;52.136;4.500;2023-04-28T03:25:27;101173.91;;;8.97;64.67
72857;BME280;62742;52.136;4.500;2023-04-28T03:27:53;101169.53;;;9.06;63.68
72857;BME280;62742;52.136;4.500;2023-04-28T03:30:19;101175.56;;;9.15;63.16
72857;BME280;62742;52.136;4.500;2023-04-28T03:32:45;101168.66;;;9.01;64.07
72857;BME280;62742;52.136;4.500;2023-04-28T03:35:12;101158.09;;;9.21;62.56
72857;BME280;62742;52.136;4.500;2023-04-28T03:37:38;101157.19;;;9.28;61.50
72857;BME280;62742;52.136;4.500;2023-04-28T03:40:04;101154.41;;;9.55;60.15
72857;BME280;62742;52.136;4.500;2023-04-28T03:42:31;101153.66;;;9.29;61.93
72857;BME280;62742;52.136;4.500;2023-04-28T03:44:57;101158.03;;;9.36;61.80
72857;BME280;62742;52.136;4.500;2023-04-28T03:47:23;101162.44;;;9.31;62.41
72857;BME280;62742;52.136;4.500;2023-04-28T03:49:49;101156.34;;;9.21;62.77
72857;BME280;62742;52.136;4.500;2023-04-28T03:52:16;101150.25;;;9.16;63.44
72857;BME280;62742;52.136;4.500;2023-04-28T03:54:42;101148.50;;;9.12;63.28
72857;BME280;62742;52.136;4.500;2023-04-28T03:57:09;101144.03;;;9.32;63.27
72857;BME280;62742;52.136;4.500;2023-04-28T03:59:35;101147.63;;;9.21;64.63
72857;BME280;62742;52.136;4.500;2023-04-28T04:02:01;101138.84;;;9.25;64.63
72857;BME280;62742;52.136;4.500;2023-04-28T04:04:28;101128.34;;;9.25;64.44
72857;BME280;62742;52.136;4.500;2023-04-28T04:06:54;101124.81;;;9.32;63.71
72857;BME280;62742;52.136;4.500;2023-04-28T04:09:20;101123.09;;;9.26;63.56
72857;BME280;62742;52.136;4.500;2023-04-28T04:11:46;101132.00;;;8.93;65.42
72857;BME280;62742;52.136;4.500;2023-04-28T04:14:13;101138.16;;;8.86;65.88
72857;BME280;62742;52.136;4.500;2023-04-28T04:16:39;101139.88;;;8.91;65.09
72857;BME280;62742;52.136;4.500;2023-04-28T04:19:05;101134.53;;;9.17;63.94
72857;BME280;62742;52.136;4.500;2023-04-28T04:21:32;101129.34;;;9.04;65.09
72857;BME280;62742;52.136;4.500;2023-04-28T04:23:58;101135.47;;;8.98;65.45
72857;BME280;62742;52.136;4.500;2023-04-28T04:26:24;101141.63;;;8.89;66.55
72857;BME280;62742;52.136;4.500;2023-04-28T04:28:50;101145.94;;;8.99;65.15
72857;BME280;62742;52.136;4.500;2023-04-28T04:31:16;101151.13;;;9.10;65.71
72857;BME280;62742;52.136;4.500;2023-04-28T04:33:44;101144.19;;;9.06;65.24
72857;BME280;62742;52.136;4.500;2023-04-28T04:36:10;101145.03;;;9.08;66.96
72857;BME280;62742;52.136;4.500;2023-04-28T04:38:36;101148.63;;;8.93;68.64
72857;BME280;62742;52.136;4.500;2023-04-28T04:41:04;101142.38;;;9.17;67.45
72857;BME280;62742;52.136;4.500;2023-04-28T04:43:31;101152.97;;;8.91;72.46
72857;BME280;62742;52.136;4.500;2023-04-28T04:45:57;101153.00;;;8.80;74.45
72857;BME280;62742;52.136;4.500;2023-04-28T04:48:24;101141.69;;;8.74;75.14
72857;BME280;62742;52.136;4.500;2023-04-28T04:50:52;101145.22;;;8.60;77.84
72857;BME280;62742;52.136;4.500;2023-04-28T04:53:18;101143.47;;;8.59;78.71
72857;BME280;62742;52.136;4.500;2023-04-28T04:55:45;101136.53;;;8.45;81.29
72857;BME280;62742;52.136;4.500;2023-04-28T04:58:12;101114.69;;;8.55;80.86
72857;BME280;62742;52.136;4.500;2023-04-28T05:00:38;101086.75;;;8.51;80.94
72857;BME280;62742;52.136;4.500;2023-04-28T05:03:04;101088.47;;;8.63;79.84
72857;BME280;62742;52.136;4.500;2023-04-28T05:05:31;101082.38;;;8.48;80.73
72857;BME280;62742;52.136;4.500;2023-04-28T05:07:57;101093.66;;;8.76;79.20
72857;BME280;62742;52.136;4.500;2023-04-28T05:10:23;101091.97;;;8.60;79.70
72857;BME280;62742;52.136;4.500;2023-04-28T05:12:50;101086.72;;;8.63;78.84
72857;BME280;62742;52.136;4.500;2023-04-28T05:15:16;101083.25;;;8.58;78.92
72857;BME280;62742;52.136;4.500;2023-04-28T05:17:42;101091.97;;;8.57;79.05
72857;BME280;62742;52.136;4.500;2023-04-28T05:20:08;101080.50;;;8.86;76.61
72857;BME280;62742;52.136;4.500;2023-04-28T05:22:35;101070.88;;;8.91;76.78
72857;BME280;62742;52.136;4.500;2023-04-28T05:25:01;101072.66;;;8.83;77.68
72857;BME280;62742;52.136;4.500;2023-04-28T05:27:27;101071.00;;;8.60;80.80
72857;BME280;62742;52.136;4.500;2023-04-28T05:29:53;101068.41;;;8.55;83.01
72857;BME280;62742;52.136;4.500;2023-04-28T05:32:21;101065.81;;;8.45;83.05
72857;BME280;62742;52.136;4.500;2023-04-28T05:34:47;101068.38;;;8.60;81.77
72857;BME280;62742;52.136;4.500;2023-04-28T05:37:13;101067.47;;;8.73;81.25
72857;BME280;62742;52.136;4.500;2023-04-28T05:39:39;101072.63;;;8.84;79.69
72857;BME280;62742;52.136;4.500;2023-04-28T05:42:05;101072.53;;;9.04;78.92
72857;BME280;62742;52.136;4.500;2023-04-28T05:44:31;101078.66;;;9.00;79.03
72857;BME280;62742;52.136;4.500;2023-04-28T05:46:58;101084.03;;;8.75;80.94
72857;BME280;62742;52.136;4.500;2023-04-28T05:49:24;101090.19;;;8.62;82.86
72857;BME280;62742;52.136;4.500;2023-04-28T05:51:50;101091.91;;;8.69;82.49
72857;BME280;62742;52.136;4.500;2023-04-28T05:54:16;101090.19;;;8.71;83.50
72857;BME280;62742;52.136;4.500;2023-04-28T05:56:44;101091.78;;;9.00;81.66
72857;BME280;62742;52.136;4.500;2023-04-28T05:59:10;101092.56;;;9.19;80.51
72857;BME280;62742;52.136;4.500;2023-04-28T06:01:36;101090.06;;;8.96;81.89
72857;BME280;62742;52.136;4.500;2023-04-28T06:04:03;101086.53;;;9.03;81.81
72857;BME280;62742;52.136;4.500;2023-04-28T06:06:29;101086.44;;;9.18;80.16
72857;BME280;62742;52.136;4.500;2023-04-28T06:08:56;101086.44;;;9.17;81.20
72857;BME280;62742;52.136;4.500;2023-04-28T06:11:22;101085.56;;;9.20;81.36
72857;BME280;62742;52.136;4.500;2023-04-28T06:13:49;101079.38;;;9.30;81.85
72857;BME280;62742;52.136;4.500;2023-04-28T06:16:16;101083.81;;;9.15;83.30
72857;BME280;62742;52.136;4.500;2023-04-28T06:18:43;101075.72;;;9.49;80.60
72857;BME280;62742;52.136;4.500;2023-04-28T06:21:10;101078.44;;;9.37;81.37
72857;BME280;62742;52.136;4.500;2023-04-28T06:23:36;101071.50;;;9.31;81.82
72857;BME280;62742;52.136;4.500;2023-04-28T06:26:05;101071.44;;;9.38;82.22
72857;BME280;62742;52.136;4.500;2023-04-28T06:28:33;101065.34;;;9.37;83.23
72857;BME280;62742;52.136;4.500;2023-04-28T06:30:59;101063.28;;;9.76;81.28
72857;BME280;62742;52.136;4.500;2023-04-28T06:33:25;101054.34;;;9.96;81.29
72857;BME280;62742;52.136;4.500;2023-04-28T06:35:52;101062.50;;;9.65;81.90
72857;BME280;62742;52.136;4.500;2023-04-28T06:38:18;101063.31;;;9.73;82.36
72857;BME280;62742;52.136;4.500;2023-04-28T06:40:44;101056.16;;;9.90;81.21
72857;BME280;62742;52.136;4.500;2023-04-28T06:43:11;101061.41;;;9.90;81.20
72857;BME280;62742;52.136;4.500;2023-04-28T06:45:37;101057.91;;;9.91;82.63
72857;BME280;62742;52.136;4.500;2023-04-28T06:48:04;101066.63;;;9.93;82.34
72857;BME280;62742;52.136;4.500;2023-04-28T06:50:31;101067.53;;;9.91;81.60
72857;BME280;62742;52.136;4.500;2023-04-28T06:52:57;101066.75;;;9.80;82.83
72857;BME280;62742;52.136;4.500;2023-04-28T06:55:26;101063.25;;;9.82;83.38
72857;BME280;62742;52.136;4.500;2023-04-28T06:57:52;101062.44;;;9.74;84.31
72857;BME280;62742;52.136;4.500;2023-04-28T07:00:18;101060.69;;;9.70;85.75
72857;BME280;62742;52.136;4.500;2023-04-28T07:02:44;101063.38;;;9.67;85.91
72857;BME280;62742;52.136;4.500;2023-04-28T07:05:11;101060.53;;;9.88;84.98
72857;BME280;62742;52.136;4.500;2023-04-28T07:07:38;101068.44;;;9.85;85.57
72857;BME280;62742;52.136;4.500;2023-04-28T07:10:05;101066.56;;;10.00;82.72
72857;BME280;62742;52.136;4.500;2023-04-28T07:12:31;101066.59;;;9.97;83.20
72857;BME280;62742;52.136;4.500;2023-04-28T07:14:57;101070.16;;;9.92;84.53
72857;BME280;62742;52.136;4.500;2023-04-28T07:17:24;101067.56;;;9.88;86.30
72857;BME280;62742;52.136;4.500;2023-04-28T07:19:50;101072.50;;;10.19;84.02
72857;BME280;62742;52.136;4.500;2023-04-28T07:22:16;101059.31;;;10.25;83.32
72857;BME280;62742;52.136;4.500;2023-04-28T07:24:43;101060.47;;;9.98;85.81
72857;BME280;62742;52.136;4.500;2023-04-28T07:27:09;101071.88;;;9.93;86.11
72857;BME280;62742;52.136;4.500;2023-04-28T07:29:35;101067.44;;;10.02;85.93
72857;BME280;62742;52.136;4.500;2023-04-28T07:32:02;101065.50;;;10.18;86.16
72857;BME280;62742;52.136;4.500;2023-04-28T07:34:30;101063.78;;;10.17;86.65
72857;BME280;62742;52.136;4.500;2023-04-28T07:36:56;101065.34;;;10.35;86.27
72857;BME280;62742;52.136;4.500;2023-04-28T07:39:23;101064.47;;;10.39;86.29
72857;BME280;62742;52.136;4.500;2023-04-28T07:41:49;101065.34;;;10.36;87.16
72857;BME280;62742;52.136;4.500;2023-04-28T07:44:15;101066.00;;;10.55;86.58
72857;BME280;62742;52.136;4.500;2023-04-28T07:46:44;101064.13;;;10.66;86.16
72857;BME280;62742;52.136;4.500;2023-04-28T07:49:11;101056.88;;;10.84;84.84
72857;BME280;62742;52.136;4.500;2023-04-28T07:51:37;101055.16;;;10.83;86.57
72857;BME280;62742;52.136;4.500;2023-04-28T07:54:03;101048.19;;;10.79;85.68
72857;BME280;62742;52.136;4.500;2023-04-28T07:56:29;101049.03;;;10.81;85.41
72857;BME280;62742;52.136;4.500;2023-04-28T07:58:55;101056.84;;;10.87;86.18
72857;BME280;62742;52.136;4.500;2023-04-28T08:01:22;101054.16;;;10.92;86.19
72857;BME280;62742;52.136;4.500;2023-04-28T08:03:48;101062.25;;;10.78;87.42
72857;BME280;62742;52.136;4.500;2023-04-28T08:06:14;101054.78;;;11.09;85.68
72857;BME280;62742;52.136;4.500;2023-04-28T08:08:40;101055.50;;;11.20;85.72
72857;BME280;62742;52.136;4.500;2023-04-28T08:11:07;101057.53;;;11.00;87.35
72857;BME280;62742;52.136;4.500;2023-04-28T08:13:33;101058.47;;;10.97;87.56
72857;BME280;62742;52.136;4.500;2023-04-28T08:15:59;101057.50;;;11.01;88.28
72857;BME280;62742;52.136;4.500;2023-04-28T08:18:26;101063.34;;;11.22;87.33
72857;BME280;62742;52.136;4.500;2023-04-28T08:20:53;101062.56;;;11.17;88.43
72857;BME280;62742;52.136;4.500;2023-04-28T08:23:19;101054.72;;;11.14;89.46
72857;BME280;62742;52.136;4.500;2023-04-28T08:25:46;101048.47;;;11.21;89.60
72857;BME280;62742;52.136;4.500;2023-04-28T08:28:12;101049.81;;;11.48;89.09
72857;BME280;62742;52.136;4.500;2023-04-28T08:30:38;101036.47;;;11.59;88.41
72857;BME280;62742;52.136;4.500;2023-04-28T08:33:05;101049.47;;;11.68;89.73
72857;BME280;62742;52.136;4.500;2023-04-28T08:35:31;101050.50;;;11.58;90.07
72857;BME280;62742;52.136;4.500;2023-04-28T08:37:57;101049.56;;;11.64;90.67
72857;BME280;62742;52.136;4.500;2023-04-28T08:40:24;101041.47;;;11.74;91.64
72857;BME280;62742;52.136;4.500;2023-04-28T08:42:51;101044.56;;;12.01;90.18
72857;BME280;62742;52.136;4.500;2023-04-28T08:45:20;101038.06;;;12.19;87.68
72857;BME280;62742;52.136;4.500;2023-04-28T08:47:48;101036.44;;;12.13;88.82
72857;BME280;62742;52.136;4.500;2023-04-28T08:50:20;101041.78;;;12.07;90.29
72857;BME280;62742;52.136;4.500;2023-04-28T08:52:50;101033.53;;;12.26;88.97
72857;BME280;62742;52.136;4.500;2023-04-28T08:55:17;101043.69;;;12.46;89.06
72857;BME280;62742;52.136;4.500;2023-04-28T08:57:45;101036.47;;;12.56;88.27
72857;BME280;62742;52.136;4.500;2023-04-28T09:00:16;101036.63;;;12.48;90.12
72857;BME280;62742;52.136;4.500;2023-04-28T09:02:43;101033.06;;;12.50;90.57
72857;BME280;62742;52.136;4.500;2023-04-28T09:05:10;101023.19;;;12.60;90.24
72857;BME280;62742;52.136;4.500;2023-04-28T09:07:38;101025.63;;;12.69;91.16
72857;BME280;62742;52.136;4.500;2023-04-28T09:10:14;101034.41;;;12.70;92.11
72857;BME280;62742;52.136;4.500;2023-04-28T09:12:46;101027.19;;;12.80;92.36
72857;BME280;62742;52.136;4.500;2023-04-28T09:15:33;101019.97;;;12.88;91.70
72857;BME280;62742;52.136;4.500;2023-04-28T09:18:03;101019.03;;;12.89;91.92
72857;BME280;62742;52.136;4.500;2023-04-28T09:20:31;101018.53;;;13.12;89.67
72857;BME280;62742;52.136;4.500;2023-04-28T09:26:20;101017.75;;;13.08;90.71
72857;BME280;62742;52.136;4.500;2023-04-28T09:28:49;101011.31;;;13.20;91.28
72857;BME280;62742;52.136;4.500;2023-04-28T09:31:22;101014.03;;;13.17;91.56
72857;BME280;62742;52.136;4.500;2023-04-28T09:34:00;101014.97;;;13.13;91.25
72857;BME280;62742;52.136;4.500;2023-04-28T09:36:27;101008.81;;;13.14;91.33
72857;BME280;62742;52.136;4.500;2023-04-28T09:38:58;101010.16;;;13.32;89.19
72857;BME280;62742;52.136;4.500;2023-04-28T09:44:17;101013.31;;;13.48;88.94
72857;BME280;62742;52.136;4.500;2023-04-28T09:46:46;101010.69;;;13.46;89.60
72857;BME280;62742;52.136;4.500;2023-04-28T09:49:13;101018.03;;;13.70;89.38
72857;BME280;62742;52.136;4.500;2023-04-28T09:51:40;101011.09;;;13.65;89.12
72857;BME280;62742;52.136;4.500;2023-04-28T09:54:06;101016.63;;;13.56;90.90
72857;BME280;62742;52.136;4.500;2023-04-28T09:56:33;101019.06;;;13.64;90.50
72857;BME280;62742;52.136;4.500;2023-04-28T09:59:03;101016.53;;;13.59;90.47
72857;BME280;62742;52.136;4.500;2023-04-28T10:01:35;101021.41;;;13.75;89.62
72857;BME280;62742;52.136;4.500;2023-04-28T10:04:06;101023.59;;;13.92;89.09
72857;BME280;62742;52.136;4.500;2023-04-28T10:06:33;101021.31;;;13.79;88.40
72857;BME280;62742;52.136;4.500;2023-04-28T10:09:02;101019.50;;;13.80;89.96
72857;BME280;62742;52.136;4.500;2023-04-28T10:11:31;101015.81;;;13.87;89.50
72857;BME280;62742;52.136;4.500;2023-04-28T10:13:58;101014.53;;;14.02;89.51
72857;BME280;62742;52.136;4.500;2023-04-28T10:16:25;101019.91;;;13.99;89.36
72857;BME280;62742;52.136;4.500;2023-04-28T10:18:57;101016.38;;;13.98;89.10
72857;BME280;62742;52.136;4.500;2023-04-28T10:21:25;101024.75;;;13.81;90.23
72857;BME280;62742;52.136;4.500;2023-04-28T10:29:26;101033.88;;;13.70;91.72
72857;BME280;62742;52.136;4.500;2023-04-28T10:43:05;101045.28;;;13.72;91.85
72857;BME280;62742;52.136;4.500;2023-04-28T10:48:14;101048.13;;;13.62;92.42
72857;BME280;62742;52.136;4.500;2023-04-28T10:58:36;101043.47;;;13.74;92.32
72857;BME280;62742;52.136;4.500;2023-04-28T11:03:49;101042.03;;;13.95;90.63
72857;BME280;62742;52.136;4.500;2023-04-28T11:06:26;101040.56;;;13.83;91.16
72857;BME280;62742;52.136;4.500;2023-04-28T11:11:30;101037.06;;;13.82;90.55
72857;BME280;62742;52.136;4.500;2023-04-28T11:16:52;101040.66;;;13.80;91.30
72857;BME280;62742;52.136;4.500;2023-04-28T11:19:25;101039.00;;;13.76;90.36
72857;BME280;62742;52.136;4.500;2023-04-28T11:21:54;101044.34;;;13.73;91.26
72857;BME280;62742;52.136;4.500;2023-04-28T11:24:23;101056.63;;;13.75;91.38
72857;BME280;62742;52.136;4.500;2023-04-28T11:26:55;101052.25;;;13.74;91.73
72857;BME280;62742;52.136;4.500;2023-04-28T11:29:32;101051.50;;;13.69;91.96
72857;BME280;62742;52.136;4.500;2023-04-28T11:32:03;101055.09;;;13.67;92.41
72857;BME280;62742;52.136;4.500;2023-04-28T11:34:30;101055.78;;;13.73;91.53
72857;BME280;62742;52.136;4.500;2023-04-28T11:37:00;101051.53;;;13.68;92.51
72857;BME280;62742;52.136;4.500;2023-04-28T11:39:28;101052.88;;;13.84;92.18
72857;BME280;62742;52.136;4.500;2023-04-28T11:42:02;101058.09;;;13.87;92.24
72857;BME280;62742;52.136;4.500;2023-04-28T11:44:36;101058.34;;;13.76;92.43
72857;BME280;62742;52.136;4.500;2023-04-28T11:47:03;101058.94;;;13.88;92.37
72857;BME280;62742;52.136;4.500;2023-04-28T11:49:31;101064.19;;;13.89;93.19
72857;BME280;62742;52.136;4.500;2023-04-28T11:52:07;101064.09;;;13.94;92.94
72857;BME280;62742;52.136;4.500;2023-04-28T11:54:35;101065.31;;;14.13;92.10
72857;BME280;62742;52.136;4.500;2023-04-28T11:57:02;101057.78;;;14.31;91.27
72857;BME280;62742;52.136;4.500;2023-04-28T11:59:33;101064.06;;;14.28;91.57
72857;BME280;62742;52.136;4.500;2023-04-28T12:02:02;101063.88;;;14.34;91.25
72857;BME280;62742;52.136;4.500;2023-04-28T12:04:31;101064.44;;;14.46;90.10
72857;BME280;62742;52.136;4.500;2023-04-28T12:07:05;101063.47;;;14.48;91.27
72857;BME280;62742;52.136;4.500;2023-04-28T12:09:35;101063.78;;;14.37;89.86
72857;BME280;62742;52.136;4.500;2023-04-28T12:12:07;101060.47;;;14.29;91.00
72857;BME280;62742;52.136;4.500;2023-04-28T12:15:04;101064.69;;;14.03;91.38
72857;BME280;62742;52.136;4.500;2023-04-28T12:17:34;101073.22;;;14.15;92.95
72857;BME280;62742;52.136;4.500;2023-04-28T12:20:03;101060.44;;;14.31;93.61
72857;BME280;62742;52.136;4.500;2023-04-28T12:22:44;101066.59;;;14.31;92.54
72857;BME280;62742;52.136;4.500;2023-04-28T12:25:16;101064.47;;;14.13;92.38
72857;BME280;62742;52.136;4.500;2023-04-28T12:30:27;101074.78;;;14.22;92.54
72857;BME280;62742;52.136;4.500;2023-04-28T12:32:56;101078.16;;;14.27;92.13
72857;BME280;62742;52.136;4.500;2023-04-28T12:35:24;101077.13;;;14.33;92.37
72857;BME280;62742;52.136;4.500;2023-04-28T12:37:52;101078.28;;;14.22;91.29
72857;BME280;62742;52.136;4.500;2023-04-28T12:40:20;101088.84;;;14.22;92.25
72857;BME280;62742;52.136;4.500;2023-04-28T12:42:46;101090.94;;;14.11;92.00
72857;BME280;62742;52.136;4.500;2023-04-28T12:45:12;101082.38;;;14.01;91.97
72857;BME280;62742;52.136;4.500;2023-04-28T12:47:39;101087.06;;;14.25;92.03
72857;BME280;62742;52.136;4.500;2023-04-28T12:50:05;101086.84;;;14.32;92.07
72857;BME280;62742;52.136;4.500;2023-04-28T12:52:32;101095.00;;;14.25;91.43
72857;BME280;62742;52.136;4.500;2023-04-28T12:55:03;101094.44;;;14.12;91.03
72857;BME280;62742;52.136;4.500;2023-04-28T12:57:30;101096.88;;;14.19;92.47
72857;BME280;62742;52.136;4.500;2023-04-28T12:59:56;101090.97;;;14.10;92.21
72857;BME280;62742;52.136;4.500;2023-04-28T13:02:22;101101.25;;;14.20;92.01
72857;BME280;62742;52.136;4.500;2023-04-28T13:04:49;101099.81;;;14.07;92.72
72857;BME280;62742;52.136;4.500;2023-04-28T13:07:16;101100.31;;;14.23;91.75
72857;BME280;62742;52.136;4.500;2023-04-28T13:09:43;101098.03;;;14.09;90.94
72857;BME280;62742;52.136;4.500;2023-04-28T13:12:09;101101.63;;;14.07;93.21
72857;BME280;62742;52.136;4.500;2023-04-28T13:14:36;101108.66;;;14.08;91.68
72857;BME280;62742;52.136;4.500;2023-04-28T13:17:02;101099.72;;;14.12;92.51
72857;BME280;62742;52.136;4.500;2023-04-28T13:19:29;101109.38;;;14.46;91.57
72857;BME280;62742;52.136;4.500;2023-04-28T13:21:56;101106.09;;;14.37;90.45
72857;BME280;62742;52.136;4.500;2023-04-28T13:24:22;101109.88;;;14.27;91.48
72857;BME280;62742;52.136;4.500;2023-04-28T13:26:50;101107.16;;;14.30;89.69
72857;BME280;62742;52.136;4.500;2023-04-28T13:29:16;101105.63;;;14.21;90.67
72857;BME280;62742;52.136;4.500;2023-04-28T13:31:43;101109.91;;;13.93;91.43
72857;BME280;62742;52.136;4.500;2023-04-28T13:34:09;101110.34;;;14.09;92.23
72857;BME280;62742;52.136;4.500;2023-04-28T13:36:40;101107.91;;;14.35;91.33
72857;BME280;62742;52.136;4.500;2023-04-28T13:39:07;101107.56;;;14.48;90.68
72857;BME280;62742;52.136;4.500;2023-04-28T13:41:37;101106.00;;;14.73;90.52